Time;durP1;ratioP1;P1;durP2;ratioP2;P2;SDS_P1;SDS_P2;PMS_P1;PMS_P2;Temp;Humidity;BMP_temperature;BMP_pressure;BME280_temperature;BME280_humidity;BME280_pressure;Samples;Min_cycle;Max_cycle;Signal;HPM_P1;HPM_P2
2021/08/08 00:00:28;;;;;;;3.05;0.50;;;14.50;99.90;;;;;;5050741;28;20093;-82
2021/08/08 00:02:53;;;;;;;1.70;0.47;;;14.50;99.90;;;;;;5047908;28;20477;-83
2021/08/08 00:05:19;;;;;;;6.63;0.70;;;14.50;99.90;;;;;;5051478;28;20048;-84
2021/08/08 00:07:44;;;;;;;2.10;0.68;;;14.50;99.90;;;;;;5054313;28;20029;-84
2021/08/08 00:10:12;;;;;;;5.60;0.65;;;14.50;99.90;;;;;;5054485;28;20032;-83
2021/08/08 00:12:38;;;;;;;2.47;0.60;;;14.50;99.90;;;;;;5054412;28;20519;-83
2021/08/08 00:15:06;;;;;;;1.60;0.68;;;14.40;99.90;;;;;;5053246;28;20032;-84
2021/08/08 00:17:32;;;;;;;1.67;0.63;;;14.40;99.90;;;;;;5047094;28;20147;-83
2021/08/08 00:19:57;;;;;;;3.83;0.70;;;14.40;99.90;;;;;;5054305;28;20033;-84
2021/08/08 00:22:23;;;;;;;2.70;0.80;;;14.40;99.90;;;;;;5055114;28;20040;-84
2021/08/08 00:24:49;;;;;;;3.78;0.70;;;14.50;99.90;;;;;;5057247;28;20086;-84
2021/08/08 00:27:14;;;;;;;4.07;0.52;;;14.40;99.90;;;;;;5048369;28;20087;-84
2021/08/08 00:29:40;;;;;;;2.03;0.70;;;14.50;99.90;;;;;;5053959;28;20090;-82
2021/08/08 00:32:06;;;;;;;3.28;0.77;;;14.50;99.90;;;;;;5043462;28;20100;-83
2021/08/08 00:34:32;;;;;;;4.82;0.70;;;14.50;99.90;;;;;;5057467;28;20059;-83
2021/08/08 00:36:58;;;;;;;1.30;0.60;;;14.40;99.90;;;;;;5053607;28;20025;-84
2021/08/08 00:39:25;;;;;;;4.72;0.60;;;14.40;99.90;;;;;;5046482;28;20030;-84
2021/08/08 00:41:51;;;;;;;3.97;0.80;;;14.40;99.90;;;;;;5056771;28;20164;-83
2021/08/08 00:44:16;;;;;;;2.38;0.60;;;14.40;99.90;;;;;;5057581;28;20031;-83
2021/08/08 00:46:42;;;;;;;2.38;0.70;;;14.40;99.90;;;;;;5056984;28;20100;-84
2021/08/08 00:49:08;;;;;;;5.03;0.70;;;15.00;99.90;;;;;;5044149;28;20575;-84
2021/08/08 00:51:33;;;;;;;1.98;0.60;;;14.50;99.90;;;;;;5056589;28;20033;-84
2021/08/08 00:54:00;;;;;;;5.10;0.65;;;14.50;99.90;;;;;;5057998;28;20029;-83
2021/08/08 00:56:26;;;;;;;5.30;0.98;;;14.40;99.90;;;;;;5065190;28;20025;-84
2021/08/08 00:58:51;;;;;;;1.33;0.40;;;14.60;99.90;;;;;;5069899;28;20047;-84
2021/08/08 01:01:21;;;;;;;2.33;0.60;;;14.40;99.90;;;;;;5061652;28;20090;-83
2021/08/08 01:03:47;;;;;;;1.80;0.60;;;14.40;99.90;;;;;;5058797;28;20031;-84
2021/08/08 01:06:21;;;;;;;1.58;0.55;;;14.30;99.90;;;;;;5058025;28;20029;-84
2021/08/08 01:08:52;;;;;;;3.00;0.68;;;14.40;99.90;;;;;;5049567;28;20029;-84
2021/08/08 01:11:19;;;;;;;5.60;0.63;;;14.30;99.90;;;;;;5058853;28;20032;-84
2021/08/08 01:13:48;;;;;;;2.75;0.55;;;14.30;99.90;;;;;;5055905;28;20044;-84
2021/08/08 01:16:16;;;;;;;2.03;0.52;;;14.30;99.90;;;;;;5053422;28;20029;-84
2021/08/08 01:18:43;;;;;;;0.95;0.35;;;14.30;99.90;;;;;;5060529;28;20033;-84
2021/08/08 01:21:09;;;;;;;3.00;0.73;;;14.30;99.90;;;;;;5052636;28;20078;-84
2021/08/08 01:23:36;;;;;;;2.53;0.70;;;14.30;99.90;;;;;;5060802;28;20032;-84
2021/08/08 01:26:01;;;;;;;3.58;0.60;;;14.30;99.90;;;;;;5051590;28;20108;-84
2021/08/08 01:28:27;;;;;;;5.47;0.50;;;14.30;99.90;;;;;;5057330;28;20116;-84
2021/08/08 01:30:53;;;;;;;2.13;0.63;;;14.30;99.90;;;;;;5055892;28;20025;-84
2021/08/08 01:33:18;;;;;;;1.92;0.50;;;14.20;99.90;;;;;;5048363;28;20029;-84
2021/08/08 01:35:44;;;;;;;3.22;0.60;;;14.20;99.90;;;;;;5048420;28;20090;-85
2021/08/08 01:38:10;;;;;;;1.85;0.52;;;14.20;99.90;;;;;;5057462;28;20056;-84
2021/08/08 01:40:57;;;;;;;2.78;0.50;;;14.30;99.90;;;;;;5057268;28;20036;-84
2021/08/08 01:43:26;;;;;;;2.15;0.60;;;14.30;99.90;;;;;;5057227;28;20078;-84
2021/08/08 01:45:56;;;;;;;4.45;0.60;;;14.30;99.90;;;;;;5049768;28;20041;-84
2021/08/08 01:48:22;;;;;;;1.73;0.60;;;14.30;99.90;;;;;;5055283;28;20040;-84
2021/08/08 01:50:49;;;;;;;4.07;0.50;;;14.20;99.90;;;;;;5057453;28;20032;-84
2021/08/08 01:53:15;;;;;;;4.88;0.82;;;14.20;99.90;;;;;;5056979;28;20517;-84
2021/08/08 01:55:41;;;;;;;2.03;0.60;;;14.30;99.90;;;;;;5051191;28;20044;-84
2021/08/08 01:58:07;;;;;;;4.25;0.60;;;14.40;99.90;;;;;;5055306;28;20024;-84
2021/08/08 02:00:33;;;;;;;2.03;0.50;;;14.40;99.90;;;;;;5056302;28;20100;-84
2021/08/08 02:02:59;;;;;;;3.33;0.43;;;14.40;99.90;;;;;;5051362;28;20392;-83
2021/08/08 02:05:27;;;;;;;5.15;0.52;;;14.40;99.90;;;;;;5053667;28;20047;-84
2021/08/08 02:07:52;;;;;;;2.35;0.40;;;14.30;99.90;;;;;;5053673;28;20061;-84
2021/08/08 02:10:18;;;;;;;3.17;0.60;;;14.30;99.90;;;;;;5055492;28;20044;-84
2021/08/08 02:12:45;;;;;;;2.45;0.70;;;14.30;99.90;;;;;;5050980;28;20048;-84
2021/08/08 02:15:11;;;;;;;4.63;0.60;;;14.30;99.90;;;;;;5048156;28;20029;-84
2021/08/08 02:17:37;;;;;;;2.63;0.57;;;14.30;99.90;;;;;;5055733;28;20111;-84
2021/08/08 02:20:05;;;;;;;1.17;0.40;;;14.20;99.90;;;;;;5053850;28;20094;-84
2021/08/08 02:22:30;;;;;;;2.28;0.60;;;14.20;99.90;;;;;;5043916;28;20061;-83
2021/08/08 02:24:56;;;;;;;1.25;0.50;;;14.10;99.90;;;;;;5060430;28;20119;-84
2021/08/08 02:27:21;;;;;;;2.25;0.77;;;14.10;99.90;;;;;;5056390;28;20036;-84
2021/08/08 02:29:47;;;;;;;2.08;0.90;;;14.00;99.90;;;;;;5052896;28;20477;-84
2021/08/08 02:32:15;;;;;;;2.65;0.70;;;14.00;99.90;;;;;;5055605;28;20032;-84
2021/08/08 02:34:41;;;;;;;1.38;0.50;;;14.00;99.90;;;;;;5055926;28;20029;-84
2021/08/08 02:37:07;;;;;;;4.32;0.60;;;14.10;99.90;;;;;;5053971;28;20029;-84
2021/08/08 02:39:33;;;;;;;3.35;0.70;;;14.10;99.90;;;;;;5056179;28;20076;-84
2021/08/08 02:41:58;;;;;;;8.45;0.55;;;14.10;99.90;;;;;;5057339;28;20040;-84
2021/08/08 02:44:24;;;;;;;2.50;0.63;;;14.10;99.90;;;;;;5054300;28;20106;-84
2021/08/08 02:46:49;;;;;;;4.97;0.70;;;14.00;99.90;;;;;;5063348;23;20057;-88
2021/08/08 02:49:15;;;;;;;3.38;0.77;;;14.00;99.90;;;;;;5044928;28;20029;-89
2021/08/08 02:51:40;;;;;;;3.60;0.50;;;14.00;99.90;;;;;;5026177;28;20017;-88
2021/08/08 02:54:07;;;;;;;7.30;0.80;;;14.00;99.90;;;;;;5023330;28;20551;-87
2021/08/08 02:56:32;;;;;;;4.00;0.80;;;13.90;99.90;;;;;;5017525;28;20030;-89
2021/08/08 02:58:58;;;;;;;7.63;0.82;;;14.10;99.90;;;;;;5022190;28;20485;-88
2021/08/08 03:01:23;;;;;;;2.65;0.55;;;13.80;99.90;;;;;;5033814;28;20025;-87
2021/08/08 03:03:49;;;;;;;3.22;0.60;;;13.90;99.90;;;;;;5003833;28;20032;-88
2021/08/08 03:06:15;;;;;;;3.72;0.73;;;13.80;99.90;;;;;;5013492;28;20088;-87
2021/08/08 03:08:42;;;;;;;5.38;0.80;;;13.80;99.90;;;;;;4997129;28;20034;-88
2021/08/08 03:11:09;;;;;;;2.78;0.65;;;13.80;99.90;;;;;;5014968;28;20092;-88
2021/08/08 03:13:36;;;;;;;3.75;0.77;;;13.70;99.90;;;;;;4998156;28;20076;-88
2021/08/08 03:16:01;;;;;;;2.17;0.70;;;14.10;99.90;;;;;;4997221;28;20124;-87
2021/08/08 03:18:27;;;;;;;4.70;1.08;;;13.60;99.90;;;;;;4997038;28;20050;-88
2021/08/08 03:20:53;;;;;;;7.15;0.60;;;13.60;99.90;;;;;;5002832;28;20030;-88
2021/08/08 03:23:18;;;;;;;2.25;0.90;;;13.60;99.90;;;;;;5017549;28;20492;-88
2021/08/08 03:25:45;;;;;;;3.08;0.65;;;13.60;99.90;;;;;;5019522;28;20084;-87
2021/08/08 03:28:10;;;;;;;3.45;0.77;;;13.60;99.90;;;;;;4997078;28;20026;-88
2021/08/08 03:30:36;;;;;;;2.78;0.70;;;13.60;99.90;;;;;;5014874;28;20108;-89
2021/08/08 03:33:02;;;;;;;2.42;0.50;;;13.60;99.90;;;;;;4996961;28;20037;-88
2021/08/08 03:35:28;;;;;;;3.90;0.70;;;13.60;99.90;;;;;;4997028;28;20064;-88
2021/08/08 03:37:55;;;;;;;3.92;0.70;;;13.50;99.90;;;;;;4998769;28;20026;-88
2021/08/08 03:40:20;;;;;;;2.20;0.70;;;13.50;99.90;;;;;;4996125;28;20146;-88
2021/08/08 03:42:46;;;;;;;5.13;0.70;;;13.90;99.90;;;;;;4994986;28;20481;-88
2021/08/08 03:45:11;;;;;;;2.50;0.65;;;13.30;99.90;;;;;;4995983;28;20443;-89
2021/08/08 03:47:37;;;;;;;4.00;0.68;;;13.50;99.90;;;;;;5002158;28;20034;-86
2021/08/08 03:50:03;;;;;;;1.55;0.70;;;13.50;99.90;;;;;;4995326;28;20037;-88
2021/08/08 03:52:29;;;;;;;2.08;0.63;;;13.50;99.90;;;;;;4995038;28;20344;-88
2021/08/08 03:54:55;;;;;;;5.28;0.90;;;13.50;99.90;;;;;;5005910;28;20026;-88
2021/08/08 03:57:20;;;;;;;5.35;0.80;;;13.50;99.90;;;;;;5012709;28;20018;-88
2021/08/08 03:59:46;;;;;;;1.95;0.60;;;13.50;99.90;;;;;;5013297;28;20030;-88
2021/08/08 04:02:11;;;;;;;3.80;0.80;;;13.40;99.90;;;;;;4996204;28;20108;-87
2021/08/08 04:04:37;;;;;;;4.38;0.70;;;13.60;99.90;;;;;;5012250;28;20033;-88
2021/08/08 04:07:03;;;;;;;2.45;0.80;;;13.80;99.90;;;;;;4996020;28;20038;-89
2021/08/08 04:09:29;;;;;;;2.50;0.73;;;13.50;99.90;;;;;;4995533;28;20026;-87
2021/08/08 04:11:54;;;;;;;7.72;0.90;;;13.10;99.90;;;;;;5005790;28;20424;-88
2021/08/08 04:14:20;;;;;;;5.13;0.88;;;13.50;99.90;;;;;;5013514;28;20072;-87
2021/08/08 04:16:46;;;;;;;3.25;0.88;;;13.50;99.90;;;;;;4996051;28;20030;-88
2021/08/08 04:19:11;;;;;;;3.15;0.75;;;13.40;99.90;;;;;;4996060;28;20097;-88
2021/08/08 04:21:37;;;;;;;5.85;1.15;;;13.40;99.90;;;;;;5005017;28;20131;-88
2021/08/08 04:24:02;;;;;;;1.88;0.60;;;13.50;99.90;;;;;;5002347;28;20493;-88
2021/08/08 04:26:28;;;;;;;3.15;0.70;;;13.30;99.90;;;;;;4996531;28;20034;-87
2021/08/08 04:28:54;;;;;;;5.25;0.63;;;13.30;99.90;;;;;;5018511;28;20127;-88
2021/08/08 04:31:19;;;;;;;4.13;0.70;;;13.30;99.90;;;;;;5007347;28;20030;-87
2021/08/08 04:33:45;;;;;;;2.30;0.57;;;13.30;99.90;;;;;;4996463;28;20034;-88
2021/08/08 04:36:11;;;;;;;2.70;0.60;;;13.40;99.90;;;;;;5013960;28;20026;-88
2021/08/08 04:38:36;;;;;;;3.67;0.65;;;13.30;99.90;;;;;;5014202;28;20030;-87
2021/08/08 04:41:03;;;;;;;2.08;0.50;;;14.00;99.90;;;;;;5014139;28;20152;-88
2021/08/08 04:43:29;;;;;;;5.65;1.10;;;13.20;99.90;;;;;;4996450;28;20022;-87
2021/08/08 04:45:54;;;;;;;2.08;0.50;;;13.10;99.90;;;;;;5002556;28;20036;-88
2021/08/08 04:48:20;;;;;;;3.15;0.70;;;13.30;99.90;;;;;;5013063;28;20606;-87
2021/08/08 04:50:46;;;;;;;2.78;0.73;;;13.30;99.90;;;;;;4995944;28;20038;-87
2021/08/08 04:53:16;;;;;;;2.60;0.63;;;12.50;99.90;;;;;;5013264;28;20037;-87
2021/08/08 04:55:42;;;;;;;2.55;0.50;;;13.30;99.90;;;;;;5006574;28;20104;-87
2021/08/08 04:58:08;;;;;;;4.82;0.80;;;13.40;99.90;;;;;;5012168;28;20029;-88
2021/08/08 05:00:35;;;;;;;2.05;0.60;;;13.50;99.90;;;;;;5006345;28;20041;-88
2021/08/08 05:03:01;;;;;;;3.47;0.52;;;13.80;99.90;;;;;;4993184;28;20561;-88
2021/08/08 05:05:27;;;;;;;5.65;0.70;;;14.00;99.90;;;;;;5001472;28;20111;-89
2021/08/08 05:07:53;;;;;;;2.88;0.70;;;13.70;99.90;;;;;;5006993;28;20125;-88
2021/08/08 05:10:19;;;;;;;7.40;1.00;;;13.70;99.90;;;;;;5013819;28;20044;-88
2021/08/08 05:12:45;;;;;;;2.22;0.60;;;13.80;99.90;;;;;;4998992;28;20169;-88
2021/08/08 05:15:11;;;;;;;4.38;0.50;;;13.90;99.90;;;;;;4997989;28;20120;-87
2021/08/08 05:17:37;;;;;;;4.72;0.63;;;13.90;99.90;;;;;;5017435;28;20030;-89
2021/08/08 05:20:07;;;;;;;3.20;0.63;;;14.00;99.90;;;;;;5005553;28;20034;-88
2021/08/08 05:22:33;;;;;;;4.78;0.57;;;14.00;99.90;;;;;;4999698;28;20541;-88
2021/08/08 05:24:58;;;;;;;2.00;0.60;;;14.20;99.90;;;;;;5001192;28;20034;-88
2021/08/08 05:27:24;;;;;;;3.78;0.60;;;14.20;99.90;;;;;;4996333;28;20406;-88
2021/08/08 05:29:50;;;;;;;8.23;0.60;;;14.30;99.90;;;;;;4998965;28;20092;-88
2021/08/08 05:32:15;;;;;;;3.22;0.47;;;14.60;99.90;;;;;;4996602;28;20225;-88
2021/08/08 05:34:41;;;;;;;3.15;0.50;;;14.40;99.90;;;;;;4996172;28;20038;-88
2021/08/08 05:37:06;;;;;;;3.38;0.65;;;14.50;99.90;;;;;;5032425;28;20478;-88
2021/08/08 05:39:32;;;;;;;2.22;0.40;;;14.50;99.90;;;;;;5007809;28;20041;-87
2021/08/08 05:41:58;;;;;;;1.60;0.35;;;14.30;99.90;;;;;;4996272;28;20072;-88
2021/08/08 05:44:23;;;;;;;3.70;0.40;;;14.50;99.90;;;;;;4996368;28;20064;-88
2021/08/08 05:46:49;;;;;;;3.08;0.50;;;14.60;99.90;;;;;;5011829;28;20045;-88
2021/08/08 05:49:15;;;;;;;3.08;0.50;;;14.80;99.90;;;;;;5014975;28;20029;-87
2021/08/08 05:51:41;;;;;;;1.55;0.40;;;14.80;99.90;;;;;;5015297;28;20033;-88
2021/08/08 05:54:07;;;;;;;2.83;0.50;;;14.90;99.90;;;;;;5010495;28;20509;-87
2021/08/08 05:56:32;;;;;;;3.25;0.60;;;15.00;99.90;;;;;;5016252;28;20029;-88
2021/08/08 05:58:58;;;;;;;2.35;0.40;;;15.10;99.90;;;;;;4995608;28;20038;-88
2021/08/08 06:01:24;;;;;;;1.95;0.52;;;15.10;99.90;;;;;;5013396;28;20045;-88
2021/08/08 06:03:50;;;;;;;2.17;0.50;;;15.20;99.90;;;;;;5013046;28;20033;-88
2021/08/08 06:06:16;;;;;;;2.28;0.40;;;15.30;99.90;;;;;;5003086;28;20597;-88
2021/08/08 06:08:41;;;;;;;3.33;0.32;;;15.40;99.90;;;;;;4995430;28;20105;-87
2021/08/08 06:11:10;;;;;;;1.05;0.32;;;15.40;99.90;;;;;;4995374;28;20109;-87
2021/08/08 06:13:36;;;;;;;1.83;0.43;;;15.60;99.90;;;;;;4995817;28;20108;-88
2021/08/08 06:16:01;;;;;;;2.90;0.40;;;15.60;99.90;;;;;;4995588;28;20038;-88
2021/08/08 06:18:27;;;;;;;0.98;0.28;;;15.70;99.90;;;;;;4994981;28;20022;-88
2021/08/08 06:20:53;;;;;;;1.60;0.40;;;15.90;99.90;;;;;;4993546;28;20033;-88
2021/08/08 06:23:18;;;;;;;1.27;0.28;;;15.70;99.90;;;;;;4995560;28;20080;-88
2021/08/08 06:25:44;;;;;;;1.27;0.32;;;15.80;99.90;;;;;;5017232;28;20034;-88
2021/08/08 06:28:10;;;;;;;0.85;0.30;;;15.90;99.90;;;;;;4994873;28;20072;-88
2021/08/08 06:30:35;;;;;;;3.58;0.30;;;15.90;99.90;;;;;;4995358;28;20030;-89
2021/08/08 06:33:01;;;;;;;1.45;0.40;;;16.10;99.90;;;;;;4994908;28;20670;-89
2021/08/08 06:35:26;;;;;;;1.50;0.30;;;16.30;99.90;;;;;;4994841;28;20026;-88
2021/08/08 06:37:52;;;;;;;0.77;0.30;;;16.20;99.90;;;;;;5002736;28;20025;-89
2021/08/08 06:40:18;;;;;;;3.60;0.40;;;16.20;99.90;;;;;;5009166;28;20550;-88
2021/08/08 06:42:44;;;;;;;1.15;0.32;;;16.50;99.90;;;;;;5013875;28;20033;-89
2021/08/08 06:45:10;;;;;;;2.30;0.38;;;16.30;99.90;;;;;;5013073;28;20044;-90
2021/08/08 06:47:35;;;;;;;2.25;0.30;;;16.30;99.90;;;;;;5007407;28;20509;-87
2021/08/08 06:50:01;;;;;;;3.53;0.40;;;16.20;99.90;;;;;;5010514;28;20029;-88
2021/08/08 06:52:27;;;;;;;1.50;0.40;;;16.40;99.90;;;;;;5005241;28;20608;-89
2021/08/08 06:54:52;;;;;;;2.53;0.40;;;16.60;99.90;;;;;;5006597;28;20117;-88
2021/08/08 06:57:23;;;;;;;2.17;0.32;;;16.60;99.90;;;;;;4996818;28;20163;-89
2021/08/08 06:59:48;;;;;;;1.73;0.30;;;16.90;99.90;;;;;;5005606;28;20282;-89
2021/08/08 07:02:14;;;;;;;4.07;0.40;;;16.80;99.90;;;;;;5005458;28;20405;-88
2021/08/08 07:04:40;;;;;;;2.10;0.32;;;16.80;99.90;;;;;;5011330;28;20096;-89
2021/08/08 07:07:15;;;;;;;2.25;0.40;;;16.70;99.90;;;;;;5021755;28;20112;-89
2021/08/08 07:09:41;;;;;;;0.90;0.20;;;16.90;99.90;;;;;;4994220;28;20088;-87
2021/08/08 07:12:07;;;;;;;2.17;0.40;;;16.90;99.90;;;;;;4994401;28;20540;-88
2021/08/08 07:14:35;;;;;;;1.60;0.40;;;17.00;99.90;;;;;;5004423;28;20038;-87
2021/08/08 07:17:03;;;;;;;1.75;0.40;;;17.10;99.90;;;;;;5027336;28;20040;-88
2021/08/08 07:19:29;;;;;;;3.20;0.30;;;17.00;99.90;;;;;;5000113;28;20034;-87
2021/08/08 07:21:55;;;;;;;3.53;0.43;;;17.10;99.90;;;;;;4998065;28;20478;-89
2021/08/08 07:24:21;;;;;;;1.15;0.32;;;17.40;99.90;;;;;;5015006;28;20044;-89
2021/08/08 07:26:47;;;;;;;2.38;0.43;;;17.40;99.90;;;;;;4993625;28;21881;-88
2021/08/08 07:29:13;;;;;;;1.80;0.40;;;17.60;99.90;;;;;;4999458;28;20064;-89
2021/08/08 07:31:39;;;;;;;2.97;0.50;;;17.60;99.90;;;;;;4993331;28;20055;-88
2021/08/08 07:34:05;;;;;;;3.55;0.50;;;17.60;99.90;;;;;;5025757;28;20025;-88
2021/08/08 07:36:30;;;;;;;3.85;0.45;;;17.60;99.90;;;;;;4999562;28;20037;-89
2021/08/08 07:38:56;;;;;;;2.63;0.30;;;17.60;99.90;;;;;;5015553;28;20055;-88
2021/08/08 07:41:22;;;;;;;1.17;0.40;;;17.60;99.90;;;;;;5022731;28;20033;-89
2021/08/08 07:43:48;;;;;;;3.72;0.50;;;17.70;99.90;;;;;;5000261;28;20521;-89
2021/08/08 07:46:14;;;;;;;1.63;0.43;;;17.90;99.90;;;;;;5019676;28;20044;-87
2021/08/08 07:48:39;;;;;;;4.55;0.30;;;18.00;99.90;;;;;;5003015;28;20034;-89
2021/08/08 07:51:05;;;;;;;3.33;0.47;;;18.10;99.90;;;;;;5008128;28;20555;-88
2021/08/08 07:54:11;;;;;;;4.82;0.50;;;18.10;99.90;;;;;;5006267;28;20029;-89
2021/08/08 07:56:36;;;;;;;2.08;0.40;;;17.90;99.90;;;;;;5017824;28;20059;-89
2021/08/08 07:59:02;;;;;;;3.30;0.45;;;18.00;99.90;;;;;;5025972;28;20474;-88
2021/08/08 08:01:32;;;;;;;3.15;0.40;;;18.20;99.90;;;;;;4998422;28;20030;-89
2021/08/08 08:03:58;;;;;;;3.45;0.40;;;18.50;99.90;;;;;;5008731;28;20474;-89
2021/08/08 08:06:23;;;;;;;1.02;0.25;;;18.40;99.90;;;;;;5028395;28;20032;-88
2021/08/08 08:08:49;;;;;;;2.10;0.40;;;18.50;99.90;;;;;;5009203;28;20025;-89
2021/08/08 08:11:17;;;;;;;3.00;0.40;;;18.60;99.90;;;;;;5008276;28;20524;-88
2021/08/08 08:13:43;;;;;;;2.50;0.40;;;18.60;99.90;;;;;;5027416;28;20017;-89
2021/08/08 08:16:09;;;;;;;4.78;0.30;;;18.50;99.90;;;;;;5026523;28;20025;-88
2021/08/08 08:18:36;;;;;;;1.42;0.38;;;18.50;99.90;;;;;;5011026;28;20032;-89
2021/08/08 08:21:01;;;;;;;3.65;0.50;;;18.40;99.90;;;;;;5025174;28;20038;-89
2021/08/08 08:23:27;;;;;;;3.60;0.40;;;18.40;99.90;;;;;;5007456;28;20030;-89
2021/08/08 08:25:55;;;;;;;1.55;0.43;;;18.60;99.90;;;;;;5006103;28;20022;-88
2021/08/08 08:28:21;;;;;;;1.92;0.35;;;18.50;99.90;;;;;;5009251;28;20116;-89
2021/08/08 08:30:47;;;;;;;2.22;0.40;;;18.50;99.90;;;;;;5007254;28;20056;-88
2021/08/08 08:33:12;;;;;;;2.97;0.40;;;18.20;99.90;;;;;;5027745;28;20391;-88
2021/08/08 08:35:38;;;;;;;4.18;0.40;;;18.10;99.90;;;;;;5008707;28;20036;-89
2021/08/08 08:38:04;;;;;;;1.85;0.47;;;18.10;99.90;;;;;;5009820;28;20446;-89
2021/08/08 08:40:35;;;;;;;2.75;0.47;;;18.00;99.90;;;;;;5011544;28;20367;-89
2021/08/08 08:43:02;;;;;;;2.15;0.55;;;18.00;99.90;;;;;;5027227;28;20474;-89
2021/08/08 08:45:28;;;;;;;1.88;0.35;;;17.90;99.90;;;;;;5013497;28;20029;-89
2021/08/08 08:47:55;;;;;;;3.08;0.40;;;17.90;99.90;;;;;;5013534;28;20116;-89
2021/08/08 08:50:23;;;;;;;1.17;0.32;;;17.80;99.90;;;;;;5014356;28;20029;-85
2021/08/08 08:52:51;;;;;;;2.00;0.50;;;17.80;99.90;;;;;;5030941;28;20482;-87
2021/08/08 08:55:17;;;;;;;1.20;0.40;;;17.90;99.90;;;;;;5024369;28;20033;-87
2021/08/08 08:57:43;;;;;;;1.80;0.40;;;18.00;99.90;;;;;;5025600;28;20033;-87
2021/08/08 09:00:10;;;;;;;2.63;0.40;;;18.00;99.90;;;;;;5009206;28;20025;-87
2021/08/08 09:02:37;;;;;;;0.95;0.32;;;18.00;99.90;;;;;;5014454;28;20056;-87
2021/08/08 09:05:03;;;;;;;2.15;0.50;;;17.90;99.90;;;;;;5012736;28;20063;-87
2021/08/08 09:07:29;;;;;;;1.65;0.40;;;17.90;99.90;;;;;;5010761;28;20112;-87
2021/08/08 09:09:56;;;;;;;2.05;0.50;;;18.00;99.90;;;;;;5005956;28;20026;-89
2021/08/08 09:12:23;;;;;;;2.13;0.40;;;17.90;99.90;;;;;;5026251;28;20022;-89
2021/08/08 09:15:04;;;;;;;1.40;0.43;;;17.90;99.90;;;;;;5002923;28;20034;-88
2021/08/08 09:17:37;;;;;;;2.38;0.40;;;18.00;99.90;;;;;;5011860;28;20080;-90
2021/08/08 09:20:11;;;;;;;1.98;0.47;;;18.10;99.90;;;;;;4996001;28;20529;-90
2021/08/08 09:22:38;;;;;;;1.55;0.35;;;18.30;99.90;;;;;;5015489;28;20088;-89
2021/08/08 09:25:05;;;;;;;5.97;0.60;;;18.60;99.90;;;;;;5005048;28;20030;-89
2021/08/08 09:27:37;;;;;;;2.70;0.50;;;18.80;99.90;;;;;;4997346;28;20094;-89
2021/08/08 09:30:23;;;;;;;5.60;0.60;;;19.20;99.90;;;;;;5010891;28;20030;-89
2021/08/08 09:33:03;;;;;;;1.67;0.35;;;19.70;99.90;;;;;;5030334;28;20044;-89
2021/08/08 09:35:51;;;;;;;2.13;0.40;;;20.10;99.90;;;;;;5010831;28;20033;-90
2021/08/08 09:38:18;;;;;;;1.00;0.32;;;20.10;99.90;;;;;;5009376;28;20050;-90
2021/08/08 09:40:54;;;;;;;4.75;0.50;;;20.00;99.90;;;;;;5008909;28;20029;-88
2021/08/08 09:43:25;;;;;;;4.13;0.50;;;20.20;99.90;;;;;;5004005;28;20026;-88
2021/08/08 09:45:51;;;;;;;;;;;20.30;99.90;;;;;;5010933;28;20034;-89
2021/08/08 09:48:17;;;;;;;2.67;0.40;;;20.50;99.90;;;;;;5031233;28;19960;-90
2021/08/08 09:50:44;;;;;;;4.88;0.47;;;20.60;99.90;;;;;;5026618;28;20108;-90
2021/08/08 09:53:18;;;;;;;3.13;0.50;;;20.70;99.90;;;;;;5018737;28;20052;-89
2021/08/08 09:55:44;;;;;;;3.17;0.40;;;20.70;99.90;;;;;;5002529;28;20053;-89
2021/08/08 09:58:10;;;;;;;2.92;0.40;;;20.30;99.90;;;;;;5010138;28;20103;-89
2021/08/08 10:00:39;;;;;;;2.92;0.38;;;20.50;99.90;;;;;;5017312;28;20029;-90
2021/08/08 10:03:06;;;;;;;4.05;0.50;;;20.80;99.90;;;;;;4998602;28;20029;-89
2021/08/08 10:05:34;;;;;;;5.53;0.52;;;20.70;99.90;;;;;;5012618;28;20530;-90
2021/08/08 10:08:10;;;;;;;2.80;0.52;;;21.00;99.90;;;;;;5000507;28;20041;-89
2021/08/08 10:10:36;;;;;;;1.60;0.40;;;21.10;99.90;;;;;;5014592;28;20032;-91
2021/08/08 10:13:05;;;;;;;2.47;0.50;;;21.40;99.90;;;;;;5003348;28;20034;-89
2021/08/08 10:15:32;;;;;;;1.63;0.30;;;21.50;99.90;;;;;;4995497;28;20104;-90
2021/08/08 10:18:00;;;;;;;3.22;0.65;;;21.10;99.90;;;;;;5012102;28;20067;-89
2021/08/08 10:20:30;;;;;;;0.90;0.30;;;20.90;99.90;;;;;;5012955;28;20023;-91
2021/08/08 10:22:56;;;;;;;2.25;0.30;;;20.90;99.90;;;;;;5011494;28;20039;-90
2021/08/08 10:25:22;;;;;;;2.42;0.30;;;21.00;99.90;;;;;;5011573;28;20017;-88
2021/08/08 10:27:49;;;;;;;2.42;0.57;;;21.00;99.90;;;;;;5009480;28;20063;-88
2021/08/08 10:30:17;;;;;;;1.88;0.40;;;21.10;99.90;;;;;;5007754;28;20088;-90
2021/08/08 10:32:43;;;;;;;2.22;0.40;;;21.20;99.90;;;;;;5009765;28;20033;-89
2021/08/08 10:35:16;;;;;;;1.13;0.40;;;21.40;99.90;;;;;;4999014;28;20372;-90
2021/08/08 10:37:48;;;;;;;2.42;0.60;;;21.40;99.90;;;;;;4994355;28;20144;-89
2021/08/08 10:40:26;;;;;;;2.75;0.50;;;21.50;99.90;;;;;;5016092;28;20479;-89
2021/08/08 10:42:52;;;;;;;1.80;0.40;;;21.70;99.90;;;;;;5007448;28;20064;-88
2021/08/08 10:45:29;;;;;;;2.03;0.30;;;21.70;99.90;;;;;;5045916;23;20061;-83
2021/08/08 10:47:57;;;;;;;2.17;0.50;;;21.50;99.90;;;;;;5055010;28;20416;-84
2021/08/08 10:50:43;;;;;;;2.13;0.50;;;21.50;99.90;;;;;;5055266;28;20036;-84
2021/08/08 10:53:27;;;;;;;3.92;0.50;;;21.10;99.90;;;;;;5063758;28;20036;-85
2021/08/08 10:56:05;;;;;;;2.45;0.50;;;21.10;99.90;;;;;;5047077;28;20053;-81
2021/08/08 10:58:33;;;;;;;3.25;0.40;;;21.30;99.90;;;;;;5043207;28;20336;-82
2021/08/08 11:00:58;;;;;;;3.53;0.50;;;21.30;99.90;;;;;;5056408;28;20042;-83
2021/08/08 11:03:24;;;;;;;2.42;0.40;;;21.40;99.90;;;;;;5065185;28;20331;-83
2021/08/08 11:05:50;;;;;;;2.35;0.40;;;21.60;99.90;;;;;;5041176;28;20105;-83
2021/08/08 11:08:17;;;;;;;1.35;0.30;;;21.70;99.90;;;;;;5056231;28;20029;-82
2021/08/08 11:10:43;;;;;;;3.60;0.50;;;21.70;99.90;;;;;;5054812;28;20017;-83
2021/08/08 11:13:17;;;;;;;2.13;0.40;;;21.60;99.90;;;;;;5036909;28;20017;-84
2021/08/08 11:15:44;;;;;;;2.47;0.60;;;22.00;99.90;;;;;;5045106;28;20029;-83
2021/08/08 11:18:10;;;;;;;2.53;0.40;;;22.20;99.90;;;;;;5059607;28;20086;-84
2021/08/08 11:20:35;;;;;;;7.97;0.95;;;22.50;99.10;;;;;;5054712;28;20025;-83
2021/08/08 11:23:03;;;;;;;1.30;0.30;;;22.60;99.00;;;;;;5047052;28;20080;-83
2021/08/08 11:25:43;;;;;;;2.45;0.50;;;22.30;96.90;;;;;;5047222;28;20021;-83
2021/08/08 11:28:10;;;;;;;2.50;0.50;;;21.70;98.20;;;;;;5035771;28;20024;-82
2021/08/08 11:30:44;;;;;;;3.28;0.40;;;21.90;98.00;;;;;;5034641;28;20036;-81
2021/08/08 11:33:12;;;;;;;1.33;0.43;;;22.10;99.80;;;;;;5034104;28;20037;-83
2021/08/08 11:35:40;;;;;;;1.85;0.40;;;22.30;99.30;;;;;;5061718;28;20108;-83
2021/08/08 11:38:21;;;;;;;3.65;0.50;;;22.30;99.00;;;;;;5055444;28;20021;-83
2021/08/08 11:40:47;;;;;;;;;;;22.30;98.60;;;;;;5045790;28;20032;-84
2021/08/08 11:43:14;;;;;;;2.35;0.40;;;22.70;97.40;;;;;;5047488;28;20341;-82
2021/08/08 11:45:46;;;;;;;2.75;0.60;;;22.90;97.30;;;;;;5053213;28;20110;-83
2021/08/08 11:48:17;;;;;;;4.00;0.52;;;23.30;96.20;;;;;;5059536;28;20457;-84
2021/08/08 11:50:46;;;;;;;1.70;0.50;;;23.60;96.60;;;;;;5056255;28;20086;-83
2021/08/08 11:53:11;;;;;;;1.90;0.40;;;23.90;95.30;;;;;;5054228;28;20029;-83
2021/08/08 11:55:38;;;;;;;1.55;0.43;;;23.80;94.60;;;;;;5055912;28;20051;-84
2021/08/08 11:58:09;;;;;;;1.23;0.30;;;23.60;95.20;;;;;;5060078;28;20021;-83
2021/08/08 12:00:36;;;;;;;;;;;23.60;94.20;;;;;;5065900;28;20063;-82
2021/08/08 12:03:02;;;;;;;1.25;0.30;;;23.60;94.30;;;;;;5062082;28;19915;-81
2021/08/08 12:05:28;;;;;;;1.65;0.40;;;23.50;93.60;;;;;;5059869;28;20036;-83
2021/08/08 12:07:55;;;;;;;1.85;0.50;;;23.40;93.50;;;;;;5063911;28;20029;-83
2021/08/08 12:10:35;;;;;;;1.98;0.30;;;23.50;93.50;;;;;;5064888;28;20037;-83
2021/08/08 12:13:12;;;;;;;2.78;0.30;;;23.50;95.10;;;;;;5056085;28;20036;-83
2021/08/08 12:15:38;;;;;;;3.90;0.50;;;23.40;93.80;;;;;;5052556;28;20502;-84
2021/08/08 12:18:04;;;;;;;1.42;0.55;;;23.60;94.60;;;;;;5040693;28;20072;-82
2021/08/08 12:20:35;;;;;;;3.08;0.47;;;23.80;93.50;;;;;;5049525;28;20048;-83
2021/08/08 12:23:10;;;;;;;2.85;0.40;;;23.80;93.80;;;;;;5052483;28;20549;-85
2021/08/08 12:25:37;;;;;;;0.55;0.20;;;24.00;93.20;;;;;;5058726;28;20100;-85
2021/08/08 12:28:03;;;;;;;1.52;0.20;;;24.00;92.40;;;;;;5059419;28;20107;-85
2021/08/08 12:30:30;;;;;;;1.02;0.20;;;24.30;93.20;;;;;;5058760;28;20424;-85
2021/08/08 12:33:09;;;;;;;1.52;0.30;;;24.40;91.90;;;;;;5057812;28;20061;-85
2021/08/08 12:35:39;;;;;;;1.75;0.20;;;24.60;90.90;;;;;;5047258;28;20060;-85
2021/08/08 12:38:07;;;;;;;2.95;0.15;;;24.80;90.40;;;;;;5056545;28;20025;-85
2021/08/08 12:40:48;;;;;;;1.50;0.32;;;24.60;90.30;;;;;;5054833;28;20032;-85
2021/08/08 12:43:27;;;;;;;1.80;0.25;;;24.10;90.70;;;;;;5053224;28;20028;-85
2021/08/08 12:45:54;;;;;;;2.15;0.40;;;23.90;90.20;;;;;;5056133;28;20033;-85
2021/08/08 12:48:30;;;;;;;1.85;0.65;;;23.80;91.10;;;;;;5056025;28;20029;-84